Eden Prairie, Minnesota
Current Conditions -  °F | °C
As of 9:53 AM on Monday 24 Nov 2014 (Local Time) from KFCM Reporting Station
Overcast Overcast  
Wind Chill:   Ceiling: 1700
Heat Index: 22°   Visibility: 10mi
Dew Point: 16°   Wind: 16mph
Humidity: 78%   Direction: 310°NW
Pressure: 29.44"   Gusts: 23mph
Location:  44.86°N, 93.46°W
Report Text: KFCM 241553Z 31014G20KT 10SM OVC017 M06/M09 A2944 RMK AO2 SLP978 T10561089
Loading
Personal Weather Stations






























Interactive Weather Map New forecast layout! Learn more

10-Day Weather Forecast

Advertisements
Track Severe Weather on mobile